sensor_id;sensor_type;location;lat;lon;timestamp;temperature;humidity
33803;DHT22;20110;53.120;5.786;2023-08-01T00:02:20;14.30;99.90
33803;DHT22;20110;53.120;5.786;2023-08-01T00:04:46;14.20;99.90
33803;DHT22;20110;53.120;5.786;2023-08-01T00:07:12;14.20;99.90
33803;DHT22;20110;53.120;5.786;2023-08-01T00:09:37;14.20;99.90
33803;DHT22;20110;53.120;5.786;2023-08-01T00:12:03;14.20;99.90
33803;DHT22;20110;53.120;5.786;2023-08-01T00:14:30;14.20;99.90
33803;DHT22;20110;53.120;5.786;2023-08-01T00:16:55;14.20;99.90
33803;DHT22;20110;53.120;5.786;2023-08-01T00:19:21;14.10;99.90
33803;DHT22;20110;53.120;5.786;2023-08-01T00:21:47;14.10;99.90
33803;DHT22;20110;53.120;5.786;2023-08-01T00:24:13;14.00;99.90
33803;DHT22;20110;53.120;5.786;2023-08-01T00:26:38;13.90;99.90
33803;DHT22;20110;53.120;5.786;2023-08-01T00:29:04;13.80;99.90
33803;DHT22;20110;53.120;5.786;2023-08-01T00:31:30;13.70;99.90
33803;DHT22;20110;53.120;5.786;2023-08-01T00:33:56;13.70;99.90
33803;DHT22;20110;53.120;5.786;2023-08-01T00:36:22;13.60;99.90
33803;DHT22;20110;53.120;5.786;2023-08-01T00:38:48;13.60;99.90
33803;DHT22;20110;53.120;5.786;2023-08-01T00:41:14;13.50;99.90
33803;DHT22;20110;53.120;5.786;2023-08-01T00:43:40;13.40;99.90
33803;DHT22;20110;53.120;5.786;2023-08-01T00:46:06;13.40;99.90
33803;DHT22;20110;53.120;5.786;2023-08-01T00:48:34;13.30;99.90
33803;DHT22;20110;53.120;5.786;2023-08-01T00:51:06;13.30;99.90
33803;DHT22;20110;53.120;5.786;2023-08-01T00:53:34;13.20;99.90
33803;DHT22;20110;53.120;5.786;2023-08-01T00:56:01;13.20;99.90
33803;DHT22;20110;53.120;5.786;2023-08-01T00:58:27;13.30;99.90
33803;DHT22;20110;53.120;5.786;2023-08-01T01:00:53;13.30;99.90
33803;DHT22;20110;53.120;5.786;2023-08-01T01:03:20;13.30;99.90
33803;DHT22;20110;53.120;5.786;2023-08-01T01:05:56;13.30;99.90
33803;DHT22;20110;53.120;5.786;2023-08-01T01:08:31;13.40;99.90
33803;DHT22;20110;53.120;5.786;2023-08-01T01:10:57;13.40;99.90
33803;DHT22;20110;53.120;5.786;2023-08-01T01:13:23;13.30;99.90
33803;DHT22;20110;53.120;5.786;2023-08-01T01:15:49;13.30;99.90
33803;DHT22;20110;53.120;5.786;2023-08-01T01:18:15;13.30;99.90
33803;DHT22;20110;53.120;5.786;2023-08-01T01:20:41;13.30;99.90
33803;DHT22;20110;53.120;5.786;2023-08-01T01:23:08;13.30;99.90
33803;DHT22;20110;53.120;5.786;2023-08-01T01:25:35;13.30;99.90
33803;DHT22;20110;53.120;5.786;2023-08-01T01:28:04;13.30;99.90
33803;DHT22;20110;53.120;5.786;2023-08-01T01:30:32;13.30;99.90
33803;DHT22;20110;53.120;5.786;2023-08-01T01:33:03;13.20;99.90
33803;DHT22;20110;53.120;5.786;2023-08-01T01:35:32;13.20;99.90
33803;DHT22;20110;53.120;5.786;2023-08-01T01:38:00;13.30;99.90
33803;DHT22;20110;53.120;5.786;2023-08-01T01:40:32;13.30;99.90
33803;DHT22;20110;53.120;5.786;2023-08-01T01:42:59;13.30;99.90
33803;DHT22;20110;53.120;5.786;2023-08-01T01:45:26;13.20;99.90
33803;DHT22;20110;53.120;5.786;2023-08-01T01:47:52;13.20;99.90
33803;DHT22;20110;53.120;5.786;2023-08-01T01:50:18;13.10;99.90
33803;DHT22;20110;53.120;5.786;2023-08-01T01:52:45;13.10;99.90
33803;DHT22;20110;53.120;5.786;2023-08-01T01:55:11;13.10;99.90
33803;DHT22;20110;53.120;5.786;2023-08-01T01:57:37;13.10;99.90
33803;DHT22;20110;53.120;5.786;2023-08-01T02:00:06;13.20;99.90
33803;DHT22;20110;53.120;5.786;2023-08-01T02:02:36;13.20;99.90
33803;DHT22;20110;53.120;5.786;2023-08-01T02:05:02;13.20;99.90
33803;DHT22;20110;53.120;5.786;2023-08-01T02:07:31;13.30;99.90
33803;DHT22;20110;53.120;5.786;2023-08-01T02:09:59;13.30;99.90
33803;DHT22;20110;53.120;5.786;2023-08-01T02:12:25;13.40;99.90
33803;DHT22;20110;53.120;5.786;2023-08-01T02:14:51;13.60;99.90
33803;DHT22;20110;53.120;5.786;2023-08-01T02:17:17;13.50;99.90
33803;DHT22;20110;53.120;5.786;2023-08-01T02:19:43;13.40;99.90
33803;DHT22;20110;53.120;5.786;2023-08-01T02:22:08;13.40;99.90
33803;DHT22;20110;53.120;5.786;2023-08-01T02:24:34;13.40;99.90
33803;DHT22;20110;53.120;5.786;2023-08-01T02:27:00;13.40;99.90
33803;DHT22;20110;53.120;5.786;2023-08-01T02:29:26;13.40;99.90
33803;DHT22;20110;53.120;5.786;2023-08-01T02:31:51;13.50;99.90
33803;DHT22;20110;53.120;5.786;2023-08-01T02:34:17;13.50;99.90
33803;DHT22;20110;53.120;5.786;2023-08-01T02:36:43;13.40;99.90
33803;DHT22;20110;53.120;5.786;2023-08-01T02:39:09;13.50;99.90
33803;DHT22;20110;53.120;5.786;2023-08-01T02:41:35;13.40;99.90
33803;DHT22;20110;53.120;5.786;2023-08-01T02:44:01;13.40;99.90
33803;DHT22;20110;53.120;5.786;2023-08-01T02:46:27;13.40;99.90
33803;DHT22;20110;53.120;5.786;2023-08-01T02:48:55;13.30;99.90
33803;DHT22;20110;53.120;5.786;2023-08-01T02:51:21;13.30;99.90
33803;DHT22;20110;53.120;5.786;2023-08-01T02:53:46;13.30;99.90
33803;DHT22;20110;53.120;5.786;2023-08-01T02:56:12;13.30;99.90
33803;DHT22;20110;53.120;5.786;2023-08-01T02:58:38;13.20;99.90
33803;DHT22;20110;53.120;5.786;2023-08-01T03:01:08;13.20;99.90
33803;DHT22;20110;53.120;5.786;2023-08-01T03:03:37;13.20;99.90
33803;DHT22;20110;53.120;5.786;2023-08-01T03:06:03;13.20;99.90
33803;DHT22;20110;53.120;5.786;2023-08-01T03:08:29;13.10;99.90
33803;DHT22;20110;53.120;5.786;2023-08-01T03:10:55;13.20;99.90
33803;DHT22;20110;53.120;5.786;2023-08-01T03:13:21;13.10;99.90
33803;DHT22;20110;53.120;5.786;2023-08-01T03:15:47;13.20;99.90
33803;DHT22;20110;53.120;5.786;2023-08-01T03:18:13;13.20;99.90
33803;DHT22;20110;53.120;5.786;2023-08-01T03:20:39;13.10;99.90
33803;DHT22;20110;53.120;5.786;2023-08-01T03:23:05;13.10;99.90
33803;DHT22;20110;53.120;5.786;2023-08-01T03:25:32;13.10;99.90
33803;DHT22;20110;53.120;5.786;2023-08-01T03:27:58;13.10;99.90
33803;DHT22;20110;53.120;5.786;2023-08-01T03:30:25;13.10;99.90
33803;DHT22;20110;53.120;5.786;2023-08-01T03:32:51;13.10;99.90
33803;DHT22;20110;53.120;5.786;2023-08-01T03:35:17;13.10;99.90
33803;DHT22;20110;53.120;5.786;2023-08-01T03:37:43;13.10;99.90
33803;DHT22;20110;53.120;5.786;2023-08-01T03:40:09;13.10;99.90
33803;DHT22;20110;53.120;5.786;2023-08-01T03:42:39;13.00;99.90
33803;DHT22;20110;53.120;5.786;2023-08-01T03:45:06;13.10;99.90
33803;DHT22;20110;53.120;5.786;2023-08-01T03:47:32;13.10;99.90
33803;DHT22;20110;53.120;5.786;2023-08-01T03:49:58;13.00;99.90
33803;DHT22;20110;53.120;5.786;2023-08-01T03:52:24;13.10;99.90
33803;DHT22;20110;53.120;5.786;2023-08-01T03:54:54;13.10;99.90
33803;DHT22;20110;53.120;5.786;2023-08-01T03:57:20;13.10;99.90
33803;DHT22;20110;53.120;5.786;2023-08-01T03:59:47;13.10;99.90
33803;DHT22;20110;53.120;5.786;2023-08-01T04:02:13;13.10;99.90
33803;DHT22;20110;53.120;5.786;2023-08-01T04:04:38;13.00;99.90
33803;DHT22;20110;53.120;5.786;2023-08-01T04:07:04;13.10;99.90
33803;DHT22;20110;53.120;5.786;2023-08-01T04:09:30;13.10;99.90
33803;DHT22;20110;53.120;5.786;2023-08-01T04:11:56;13.10;99.90
33803;DHT22;20110;53.120;5.786;2023-08-01T04:14:22;13.20;99.90
33803;DHT22;20110;53.120;5.786;2023-08-01T04:16:48;13.30;99.90
33803;DHT22;20110;53.120;5.786;2023-08-01T04:19:13;13.30;99.90
33803;DHT22;20110;53.120;5.786;2023-08-01T04:21:39;13.40;99.90
33803;DHT22;20110;53.120;5.786;2023-08-01T04:24:05;13.40;99.90
33803;DHT22;20110;53.120;5.786;2023-08-01T04:26:31;13.40;99.90
33803;DHT22;20110;53.120;5.786;2023-08-01T04:28:57;13.40;99.90
33803;DHT22;20110;53.120;5.786;2023-08-01T04:31:23;13.50;99.90
33803;DHT22;20110;53.120;5.786;2023-08-01T04:33:48;13.50;99.90
33803;DHT22;20110;53.120;5.786;2023-08-01T04:36:14;13.50;99.90
33803;DHT22;20110;53.120;5.786;2023-08-01T04:38:40;13.50;99.90
33803;DHT22;20110;53.120;5.786;2023-08-01T04:41:07;13.50;99.90
33803;DHT22;20110;53.120;5.786;2023-08-01T04:43:33;13.50;99.90
33803;DHT22;20110;53.120;5.786;2023-08-01T04:45:59;13.50;99.90
33803;DHT22;20110;53.120;5.786;2023-08-01T04:48:25;13.60;99.90
33803;DHT22;20110;53.120;5.786;2023-08-01T04:50:50;13.60;99.90
33803;DHT22;20110;53.120;5.786;2023-08-01T04:53:16;13.60;99.90
33803;DHT22;20110;53.120;5.786;2023-08-01T04:55:42;13.60;99.90
33803;DHT22;20110;53.120;5.786;2023-08-01T04:58:08;13.50;99.90
33803;DHT22;20110;53.120;5.786;2023-08-01T05:00:33;13.50;99.90
33803;DHT22;20110;53.120;5.786;2023-08-01T05:02:59;13.40;99.90
33803;DHT22;20110;53.120;5.786;2023-08-01T05:05:26;13.40;99.90
33803;DHT22;20110;53.120;5.786;2023-08-01T05:07:52;13.50;99.90
33803;DHT22;20110;53.120;5.786;2023-08-01T05:10:17;13.50;99.90
33803;DHT22;20110;53.120;5.786;2023-08-01T05:12:43;13.50;99.90
33803;DHT22;20110;53.120;5.786;2023-08-01T05:15:09;13.40;99.90
33803;DHT22;20110;53.120;5.786;2023-08-01T05:17:35;13.40;99.90
33803;DHT22;20110;53.120;5.786;2023-08-01T05:20:01;13.40;99.90
33803;DHT22;20110;53.120;5.786;2023-08-01T05:22:29;13.30;99.90
33803;DHT22;20110;53.120;5.786;2023-08-01T05:24:54;13.30;99.90
33803;DHT22;20110;53.120;5.786;2023-08-01T05:27:20;13.40;99.90
33803;DHT22;20110;53.120;5.786;2023-08-01T05:29:46;13.30;99.90
33803;DHT22;20110;53.120;5.786;2023-08-01T05:32:12;13.20;99.90
33803;DHT22;20110;53.120;5.786;2023-08-01T05:34:37;13.10;99.90
33803;DHT22;20110;53.120;5.786;2023-08-01T05:37:03;13.00;99.90
33803;DHT22;20110;53.120;5.786;2023-08-01T05:39:30;13.10;99.90
33803;DHT22;20110;53.120;5.786;2023-08-01T05:41:55;13.00;99.90
33803;DHT22;20110;53.120;5.786;2023-08-01T05:44:21;13.10;99.90
33803;DHT22;20110;53.120;5.786;2023-08-01T05:46:47;13.20;99.90
33803;DHT22;20110;53.120;5.786;2023-08-01T05:49:13;13.10;99.90
33803;DHT22;20110;53.120;5.786;2023-08-01T05:51:38;13.10;99.90
33803;DHT22;20110;53.120;5.786;2023-08-01T05:54:04;13.10;99.90
33803;DHT22;20110;53.120;5.786;2023-08-01T05:56:31;13.20;99.90
33803;DHT22;20110;53.120;5.786;2023-08-01T05:58:57;13.20;99.90
33803;DHT22;20110;53.120;5.786;2023-08-01T06:01:23;13.30;99.90
33803;DHT22;20110;53.120;5.786;2023-08-01T06:03:50;13.50;99.90
33803;DHT22;20110;53.120;5.786;2023-08-01T06:06:16;13.60;99.90
33803;DHT22;20110;53.120;5.786;2023-08-01T06:08:41;13.60;99.90
33803;DHT22;20110;53.120;5.786;2023-08-01T06:11:07;13.60;99.90
33803;DHT22;20110;53.120;5.786;2023-08-01T06:13:33;13.60;99.90
33803;DHT22;20110;53.120;5.786;2023-08-01T06:15:59;13.50;99.90
33803;DHT22;20110;53.120;5.786;2023-08-01T06:18:25;13.40;99.90
33803;DHT22;20110;53.120;5.786;2023-08-01T06:20:51;13.40;99.90
33803;DHT22;20110;53.120;5.786;2023-08-01T06:23:16;13.50;99.90
33803;DHT22;20110;53.120;5.786;2023-08-01T06:25:42;13.40;99.90
33803;DHT22;20110;53.120;5.786;2023-08-01T06:28:08;13.50;99.90
33803;DHT22;20110;53.120;5.786;2023-08-01T06:30:34;13.50;99.90
33803;DHT22;20110;53.120;5.786;2023-08-01T06:33:00;13.60;99.90
33803;DHT22;20110;53.120;5.786;2023-08-01T06:35:25;13.50;99.90
33803;DHT22;20110;53.120;5.786;2023-08-01T06:37:51;13.60;99.90
33803;DHT22;20110;53.120;5.786;2023-08-01T06:40:17;13.70;99.90
33803;DHT22;20110;53.120;5.786;2023-08-01T06:42:43;13.70;99.90
33803;DHT22;20110;53.120;5.786;2023-08-01T06:45:09;13.70;99.90
33803;DHT22;20110;53.120;5.786;2023-08-01T06:47:35;13.60;99.90
33803;DHT22;20110;53.120;5.786;2023-08-01T06:50:01;13.60;99.90
33803;DHT22;20110;53.120;5.786;2023-08-01T06:52:26;13.60;99.90
33803;DHT22;20110;53.120;5.786;2023-08-01T06:54:52;13.60;99.90
33803;DHT22;20110;53.120;5.786;2023-08-01T06:57:18;13.60;99.90
33803;DHT22;20110;53.120;5.786;2023-08-01T06:59:44;13.70;99.90
33803;DHT22;20110;53.120;5.786;2023-08-01T07:02:09;13.80;99.90
33803;DHT22;20110;53.120;5.786;2023-08-01T07:04:36;13.80;99.90
33803;DHT22;20110;53.120;5.786;2023-08-01T07:07:03;13.90;99.90
33803;DHT22;20110;53.120;5.786;2023-08-01T07:09:29;13.80;99.90
33803;DHT22;20110;53.120;5.786;2023-08-01T07:11:55;13.80;99.90
33803;DHT22;20110;53.120;5.786;2023-08-01T07:14:20;13.80;99.90
33803;DHT22;20110;53.120;5.786;2023-08-01T07:16:46;13.80;99.90
33803;DHT22;20110;53.120;5.786;2023-08-01T07:19:12;13.90;99.90
33803;DHT22;20110;53.120;5.786;2023-08-01T07:21:38;13.90;99.90
33803;DHT22;20110;53.120;5.786;2023-08-01T07:24:04;13.80;99.90
33803;DHT22;20110;53.120;5.786;2023-08-01T07:26:30;13.80;99.90
33803;DHT22;20110;53.120;5.786;2023-08-01T07:28:56;13.70;99.90
33803;DHT22;20110;53.120;5.786;2023-08-01T07:31:22;13.70;99.90
33803;DHT22;20110;53.120;5.786;2023-08-01T07:33:48;13.70;99.90
33803;DHT22;20110;53.120;5.786;2023-08-01T07:36:14;13.60;99.90
33803;DHT22;20110;53.120;5.786;2023-08-01T07:38:39;13.50;99.90
33803;DHT22;20110;53.120;5.786;2023-08-01T07:41:06;13.60;99.90
33803;DHT22;20110;53.120;5.786;2023-08-01T07:43:32;13.50;99.90
33803;DHT22;20110;53.120;5.786;2023-08-01T07:45:59;13.60;99.90
33803;DHT22;20110;53.120;5.786;2023-08-01T07:48:25;13.60;99.90
33803;DHT22;20110;53.120;5.786;2023-08-01T07:50:51;13.60;99.90
33803;DHT22;20110;53.120;5.786;2023-08-01T07:53:17;13.70;99.90
33803;DHT22;20110;53.120;5.786;2023-08-01T07:55:43;13.80;99.90
33803;DHT22;20110;53.120;5.786;2023-08-01T07:58:09;13.80;99.90
33803;DHT22;20110;53.120;5.786;2023-08-01T08:00:35;13.90;99.90
33803;DHT22;20110;53.120;5.786;2023-08-01T08:03:01;13.90;99.90
33803;DHT22;20110;53.120;5.786;2023-08-01T08:05:27;13.90;99.90
33803;DHT22;20110;53.120;5.786;2023-08-01T08:07:52;14.00;99.90
33803;DHT22;20110;53.120;5.786;2023-08-01T08:10:18;13.90;99.90
33803;DHT22;20110;53.120;5.786;2023-08-01T08:12:44;14.00;99.90
33803;DHT22;20110;53.120;5.786;2023-08-01T08:15:10;13.90;99.90
33803;DHT22;20110;53.120;5.786;2023-08-01T08:17:36;14.00;99.90
33803;DHT22;20110;53.120;5.786;2023-08-01T08:20:03;14.00;99.90
33803;DHT22;20110;53.120;5.786;2023-08-01T08:22:29;14.10;99.90
33803;DHT22;20110;53.120;5.786;2023-08-01T08:24:55;14.10;99.90
33803;DHT22;20110;53.120;5.786;2023-08-01T08:27:21;14.10;99.90
33803;DHT22;20110;53.120;5.786;2023-08-01T08:29:46;14.30;99.90
33803;DHT22;20110;53.120;5.786;2023-08-01T08:32:12;14.40;99.90
33803;DHT22;20110;53.120;5.786;2023-08-01T08:34:38;14.60;99.90
33803;DHT22;20110;53.120;5.786;2023-08-01T08:37:05;14.70;99.90
33803;DHT22;20110;53.120;5.786;2023-08-01T08:39:31;14.90;99.90
33803;DHT22;20110;53.120;5.786;2023-08-01T08:41:57;14.80;99.90
33803;DHT22;20110;53.120;5.786;2023-08-01T08:44:24;14.80;99.90
33803;DHT22;20110;53.120;5.786;2023-08-01T08:46:52;14.60;99.90
33803;DHT22;20110;53.120;5.786;2023-08-01T08:49:20;14.30;99.90
33803;DHT22;20110;53.120;5.786;2023-08-01T08:51:47;14.20;99.90
33803;DHT22;20110;53.120;5.786;2023-08-01T08:54:15;14.20;99.90
33803;DHT22;20110;53.120;5.786;2023-08-01T08:56:42;14.50;99.90
33803;DHT22;20110;53.120;5.786;2023-08-01T08:59:09;14.80;99.90
33803;DHT22;20110;53.120;5.786;2023-08-01T09:01:36;15.00;99.90
33803;DHT22;20110;53.120;5.786;2023-08-01T09:04:03;15.20;99.90
33803;DHT22;20110;53.120;5.786;2023-08-01T09:06:35;15.30;99.90
33803;DHT22;20110;53.120;5.786;2023-08-01T09:09:12;15.30;99.90
33803;DHT22;20110;53.120;5.786;2023-08-01T09:11:44;15.10;99.90
33803;DHT22;20110;53.120;5.786;2023-08-01T09:14:12;15.10;99.90
33803;DHT22;20110;53.120;5.786;2023-08-01T09:16:40;15.00;99.90
33803;DHT22;20110;53.120;5.786;2023-08-01T09:19:07;14.90;99.90
33803;DHT22;20110;53.120;5.786;2023-08-01T09:21:35;15.00;99.90
33803;DHT22;20110;53.120;5.786;2023-08-01T09:24:12;15.20;99.90
33803;DHT22;20110;53.120;5.786;2023-08-01T09:26:39;15.60;99.90
33803;DHT22;20110;53.120;5.786;2023-08-01T09:29:06;15.90;99.90
33803;DHT22;20110;53.120;5.786;2023-08-01T09:31:50;16.00;99.90
33803;DHT22;20110;53.120;5.786;2023-08-01T09:34:24;15.80;99.90
33803;DHT22;20110;53.120;5.786;2023-08-01T09:36:58;15.80;99.90
33803;DHT22;20110;53.120;5.786;2023-08-01T09:39:25;15.90;99.90
33803;DHT22;20110;53.120;5.786;2023-08-01T09:41:58;16.10;99.90
33803;DHT22;20110;53.120;5.786;2023-08-01T09:44:26;16.40;99.90
33803;DHT22;20110;53.120;5.786;2023-08-01T09:47:02;16.40;99.90
33803;DHT22;20110;53.120;5.786;2023-08-01T09:49:30;16.80;99.90
33803;DHT22;20110;53.120;5.786;2023-08-01T09:51:57;17.00;99.90
33803;DHT22;20110;53.120;5.786;2023-08-01T09:54:24;17.10;99.90
33803;DHT22;20110;53.120;5.786;2023-08-01T09:56:52;17.10;99.90
33803;DHT22;20110;53.120;5.786;2023-08-01T09:59:24;17.40;99.90
33803;DHT22;20110;53.120;5.786;2023-08-01T10:01:53;17.40;99.90
33803;DHT22;20110;53.120;5.786;2023-08-01T10:04:29;17.40;99.90
33803;DHT22;20110;53.120;5.786;2023-08-01T10:07:08;17.50;99.90
33803;DHT22;20110;53.120;5.786;2023-08-01T10:09:37;17.50;63.90
33803;DHT22;20110;53.120;5.786;2023-08-01T10:12:05;17.30;99.90
33803;DHT22;20110;53.120;5.786;2023-08-01T10:14:35;17.30;99.90
33803;DHT22;20110;53.120;5.786;2023-08-01T10:17:02;17.60;1.00
33803;DHT22;20110;53.120;5.786;2023-08-01T10:19:31;17.70;99.90
33803;DHT22;20110;53.120;5.786;2023-08-01T10:22:01;18.20;30.30
33803;DHT22;20110;53.120;5.786;2023-08-01T10:24:28;18.10;99.90
33803;DHT22;20110;53.120;5.786;2023-08-01T10:26:55;17.50;77.10
33803;DHT22;20110;53.120;5.786;2023-08-01T10:29:21;17.40;31.50
33803;DHT22;20110;53.120;5.786;2023-08-01T10:31:54;17.10;1.00
33803;DHT22;20110;53.120;5.786;2023-08-01T10:34:20;17.30;99.90
33803;DHT22;20110;53.120;5.786;2023-08-01T10:36:55;17.90;99.30
33803;DHT22;20110;53.120;5.786;2023-08-01T10:39:25;18.40;99.90
33803;DHT22;20110;53.120;5.786;2023-08-01T10:44:28;18.40;1.00
33803;DHT22;20110;53.120;5.786;2023-08-01T10:47:01;18.20;1.00
33803;DHT22;20110;53.120;5.786;2023-08-01T10:49:47;17.90;1.00
33803;DHT22;20110;53.120;5.786;2023-08-01T10:52:20;17.90;99.90
33803;DHT22;20110;53.120;5.786;2023-08-01T10:54:58;18.10;99.90
33803;DHT22;20110;53.120;5.786;2023-08-01T10:57:30;18.10;99.90
33803;DHT22;20110;53.120;5.786;2023-08-01T10:59:58;18.20;99.90
33803;DHT22;20110;53.120;5.786;2023-08-01T11:02:28;18.20;99.90
33803;DHT22;20110;53.120;5.786;2023-08-01T11:04:57;18.20;99.90
33803;DHT22;20110;53.120;5.786;2023-08-01T11:07:34;18.70;99.90
33803;DHT22;20110;53.120;5.786;2023-08-01T11:10:08;19.80;99.90
33803;DHT22;20110;53.120;5.786;2023-08-01T11:15:11;19.60;99.90
33803;DHT22;20110;53.120;5.786;2023-08-01T11:17:39;19.60;99.90
33803;DHT22;20110;53.120;5.786;2023-08-01T11:20:08;19.10;99.90
33803;DHT22;20110;53.120;5.786;2023-08-01T11:22:36;18.60;99.90
33803;DHT22;20110;53.120;5.786;2023-08-01T11:25:04;18.50;1.00
33803;DHT22;20110;53.120;5.786;2023-08-01T11:27:31;19.00;1.00
33803;DHT22;20110;53.120;5.786;2023-08-01T11:29:57;19.20;99.90
33803;DHT22;20110;53.120;5.786;2023-08-01T11:32:33;19.70;99.90
33803;DHT22;20110;53.120;5.786;2023-08-01T11:35:01;19.40;99.90
33803;DHT22;20110;53.120;5.786;2023-08-01T11:37:28;19.20;99.90
33803;DHT22;20110;53.120;5.786;2023-08-01T11:39:55;18.80;99.90
33803;DHT22;20110;53.120;5.786;2023-08-01T11:42:23;18.50;99.90
33803;DHT22;20110;53.120;5.786;2023-08-01T11:44:49;18.50;99.90
33803;DHT22;20110;53.120;5.786;2023-08-01T11:47:16;18.20;99.90
33803;DHT22;20110;53.120;5.786;2023-08-01T11:49:47;17.80;1.00
33803;DHT22;20110;53.120;5.786;2023-08-01T11:52:28;17.80;1.00
33803;DHT22;20110;53.120;5.786;2023-08-01T11:54:54;18.40;1.00
33803;DHT22;20110;53.120;5.786;2023-08-01T11:57:22;19.00;99.90
33803;DHT22;20110;53.120;5.786;2023-08-01T11:59:50;18.90;99.90
33803;DHT22;20110;53.120;5.786;2023-08-01T12:02:27;18.60;99.90
33803;DHT22;20110;53.120;5.786;2023-08-01T12:04:57;18.40;99.90
33803;DHT22;20110;53.120;5.786;2023-08-01T12:07:28;18.60;1.00
33803;DHT22;20110;53.120;5.786;2023-08-01T12:09:56;18.60;51.60
33803;DHT22;20110;53.120;5.786;2023-08-01T12:12:23;18.70;1.00
33803;DHT22;20110;53.120;5.786;2023-08-01T12:14:51;18.80;99.90
33803;DHT22;20110;53.120;5.786;2023-08-01T12:17:18;18.90;99.90
33803;DHT22;20110;53.120;5.786;2023-08-01T12:19:44;18.50;99.90
33803;DHT22;20110;53.120;5.786;2023-08-01T12:22:11;17.90;1.00
33803;DHT22;20110;53.120;5.786;2023-08-01T12:24:38;16.70;99.90
33803;DHT22;20110;53.120;5.786;2023-08-01T12:27:08;15.90;99.90
33803;DHT22;20110;53.120;5.786;2023-08-01T12:29:34;15.70;99.90
33803;DHT22;20110;53.120;5.786;2023-08-01T12:32:02;15.80;99.90
33803;DHT22;20110;53.120;5.786;2023-08-01T12:34:28;15.90;99.90
33803;DHT22;20110;53.120;5.786;2023-08-01T12:36:54;16.00;99.90
33803;DHT22;20110;53.120;5.786;2023-08-01T12:39:20;16.00;99.90
33803;DHT22;20110;53.120;5.786;2023-08-01T12:41:46;16.00;99.90
33803;DHT22;20110;53.120;5.786;2023-08-01T12:44:11;16.10;99.90
33803;DHT22;20110;53.120;5.786;2023-08-01T12:46:42;16.20;99.90
33803;DHT22;20110;53.120;5.786;2023-08-01T12:49:08;16.30;99.90
33803;DHT22;20110;53.120;5.786;2023-08-01T12:51:34;16.00;99.90
33803;DHT22;20110;53.120;5.786;2023-08-01T12:54:00;16.00;99.90
33803;DHT22;20110;53.120;5.786;2023-08-01T12:56:26;16.20;99.90
33803;DHT22;20110;53.120;5.786;2023-08-01T12:58:52;16.30;99.90
33803;DHT22;20110;53.120;5.786;2023-08-01T13:01:17;16.40;99.90
33803;DHT22;20110;53.120;5.786;2023-08-01T13:03:43;16.70;99.90
33803;DHT22;20110;53.120;5.786;2023-08-01T13:06:11;16.70;99.90
33803;DHT22;20110;53.120;5.786;2023-08-01T13:08:38;16.70;99.90
33803;DHT22;20110;53.120;5.786;2023-08-01T13:11:11;16.70;99.90
33803;DHT22;20110;53.120;5.786;2023-08-01T13:13:39;16.10;99.90
33803;DHT22;20110;53.120;5.786;2023-08-01T13:16:06;16.10;99.90
33803;DHT22;20110;53.120;5.786;2023-08-01T13:18:32;16.40;99.90
33803;DHT22;20110;53.120;5.786;2023-08-01T13:20:58;16.50;99.90
33803;DHT22;20110;53.120;5.786;2023-08-01T13:23:25;17.00;99.90
33803;DHT22;20110;53.120;5.786;2023-08-01T13:25:51;17.10;99.90
33803;DHT22;20110;53.120;5.786;2023-08-01T13:28:17;17.00;99.90
33803;DHT22;20110;53.120;5.786;2023-08-01T13:30:43;17.10;99.90
33803;DHT22;20110;53.120;5.786;2023-08-01T13:33:09;17.30;99.90
33803;DHT22;20110;53.120;5.786;2023-08-01T13:35:34;17.00;99.90
33803;DHT22;20110;53.120;5.786;2023-08-01T13:38:00;16.70;99.90
33803;DHT22;20110;53.120;5.786;2023-08-01T13:40:26;16.60;99.90
33803;DHT22;20110;53.120;5.786;2023-08-01T13:42:52;16.60;99.90
33803;DHT22;20110;53.120;5.786;2023-08-01T13:45:18;16.40;99.90
33803;DHT22;20110;53.120;5.786;2023-08-01T13:47:44;16.50;99.90
33803;DHT22;20110;53.120;5.786;2023-08-01T13:50:09;16.20;99.90
33803;DHT22;20110;53.120;5.786;2023-08-01T13:52:38;16.30;99.90
33803;DHT22;20110;53.120;5.786;2023-08-01T13:55:06;16.50;99.90
33803;DHT22;20110;53.120;5.786;2023-08-01T13:57:32;16.70;99.90
33803;DHT22;20110;53.120;5.786;2023-08-01T13:59:58;16.80;99.90
33803;DHT22;20110;53.120;5.786;2023-08-01T14:02:24;16.70;99.90
33803;DHT22;20110;53.120;5.786;2023-08-01T14:04:53;16.70;99.90
33803;DHT22;20110;53.120;5.786;2023-08-01T14:07:18;16.60;99.90
33803;DHT22;20110;53.120;5.786;2023-08-01T14:09:44;16.40;99.90
33803;DHT22;20110;53.120;5.786;2023-08-01T14:12:10;16.40;99.90
33803;DHT22;20110;53.120;5.786;2023-08-01T14:14:36;16.70;99.90
33803;DHT22;20110;53.120;5.786;2023-08-01T14:17:03;16.60;99.90
33803;DHT22;20110;53.120;5.786;2023-08-01T14:19:29;16.80;99.90
33803;DHT22;20110;53.120;5.786;2023-08-01T14:21:56;16.60;99.90
33803;DHT22;20110;53.120;5.786;2023-08-01T14:24:23;16.30;99.90
33803;DHT22;20110;53.120;5.786;2023-08-01T14:26:49;16.00;99.90
33803;DHT22;20110;53.120;5.786;2023-08-01T14:29:19;16.00;99.90
33803;DHT22;20110;53.120;5.786;2023-08-01T14:31:48;16.30;99.90
33803;DHT22;20110;53.120;5.786;2023-08-01T14:34:17;16.50;99.90
33803;DHT22;20110;53.120;5.786;2023-08-01T14:36:43;16.60;99.90
33803;DHT22;20110;53.120;5.786;2023-08-01T14:39:09;16.70;99.90
33803;DHT22;20110;53.120;5.786;2023-08-01T14:41:35;16.50;99.90
33803;DHT22;20110;53.120;5.786;2023-08-01T14:44:00;16.30;99.90
33803;DHT22;20110;53.120;5.786;2023-08-01T14:46:26;16.40;99.90
33803;DHT22;20110;53.120;5.786;2023-08-01T14:48:52;16.40;99.90
33803;DHT22;20110;53.120;5.786;2023-08-01T14:51:19;16.40;99.90
33803;DHT22;20110;53.120;5.786;2023-08-01T14:53:45;16.50;99.90
33803;DHT22;20110;53.120;5.786;2023-08-01T14:56:10;16.50;99.90
33803;DHT22;20110;53.120;5.786;2023-08-01T14:58:36;16.70;99.90
33803;DHT22;20110;53.120;5.786;2023-08-01T15:01:05;16.80;99.90
33803;DHT22;20110;53.120;5.786;2023-08-01T15:03:37;17.10;99.90
33803;DHT22;20110;53.120;5.786;2023-08-01T15:06:07;17.10;99.90
33803;DHT22;20110;53.120;5.786;2023-08-01T15:08:33;16.90;92.20
33803;DHT22;20110;53.120;5.786;2023-08-01T15:11:06;16.80;99.90
33803;DHT22;20110;53.120;5.786;2023-08-01T15:13:34;16.50;99.90
33803;DHT22;20110;53.120;5.786;2023-08-01T15:16:01;16.10;99.90
33803;DHT22;20110;53.120;5.786;2023-08-01T15:18:27;16.00;99.90
33803;DHT22;20110;53.120;5.786;2023-08-01T15:20:53;15.90;99.90
33803;DHT22;20110;53.120;5.786;2023-08-01T15:23:20;15.80;99.90
33803;DHT22;20110;53.120;5.786;2023-08-01T15:25:56;16.00;99.90
33803;DHT22;20110;53.120;5.786;2023-08-01T15:28:24;16.00;99.90
33803;DHT22;20110;53.120;5.786;2023-08-01T15:31:08;16.10;99.90
33803;DHT22;20110;53.120;5.786;2023-08-01T15:33:36;16.20;99.90
33803;DHT22;20110;53.120;5.786;2023-08-01T15:36:05;16.40;99.90
33803;DHT22;20110;53.120;5.786;2023-08-01T15:38:33;16.60;99.90